sensor_id;sensor_type;location;lat;lon;timestamp;P1;durP1;ratioP1;P2;durP2;ratioP2
75408;SDS011;63979;55.644;37.734;2023-04-25T00:00:16;9.85;;;6.78;;
75408;SDS011;63979;55.644;37.734;2023-04-25T00:05:17;13.43;;;7.38;;
75408;SDS011;63979;55.644;37.734;2023-04-25T00:10:19;16.52;;;8.20;;
75408;SDS011;63979;55.644;37.734;2023-04-25T00:15:20;16.73;;;9.48;;
75408;SDS011;63979;55.644;37.734;2023-04-25T00:20:22;18.13;;;8.75;;
75408;SDS011;63979;55.644;37.734;2023-04-25T00:25:23;11.90;;;7.05;;
75408;SDS011;63979;55.644;37.734;2023-04-25T00:30:25;14.32;;;7.78;;
75408;SDS011;63979;55.644;37.734;2023-04-25T00:35:26;13.80;;;6.25;;
75408;SDS011;63979;55.644;37.734;2023-04-25T00:40:28;13.20;;;6.57;;
75408;SDS011;63979;55.644;37.734;2023-04-25T00:45:29;9.45;;;5.75;;
75408;SDS011;63979;55.644;37.734;2023-04-25T00:50:30;13.00;;;7.15;;
75408;SDS011;63979;55.644;37.734;2023-04-25T00:55:33;13.30;;;7.32;;
75408;SDS011;63979;55.644;37.734;2023-04-25T01:00:36;12.48;;;8.18;;
75408;SDS011;63979;55.644;37.734;2023-04-25T01:05:37;10.23;;;6.93;;
75408;SDS011;63979;55.644;37.734;2023-04-25T01:10:39;14.93;;;7.95;;
75408;SDS011;63979;55.644;37.734;2023-04-25T01:15:40;13.60;;;8.55;;
75408;SDS011;63979;55.644;37.734;2023-04-25T01:20:41;22.02;;;8.55;;
75408;SDS011;63979;55.644;37.734;2023-04-25T01:25:43;12.20;;;6.93;;
75408;SDS011;63979;55.644;37.734;2023-04-25T01:30:45;17.10;;;8.13;;
75408;SDS011;63979;55.644;37.734;2023-04-25T01:40:48;26.65;;;15.82;;
75408;SDS011;63979;55.644;37.734;2023-04-25T01:45:51;15.25;;;8.23;;
75408;SDS011;63979;55.644;37.734;2023-04-25T01:50:52;16.75;;;6.45;;
75408;SDS011;63979;55.644;37.734;2023-04-25T01:55:53;12.70;;;6.10;;
75408;SDS011;63979;55.644;37.734;2023-04-25T02:00:54;9.10;;;6.07;;
75408;SDS011;63979;55.644;37.734;2023-04-25T02:05:55;9.85;;;5.82;;
75408;SDS011;63979;55.644;37.734;2023-04-25T02:10:56;11.55;;;6.68;;
75408;SDS011;63979;55.644;37.734;2023-04-25T02:15:57;12.57;;;8.35;;
75408;SDS011;63979;55.644;37.734;2023-04-25T02:20:59;10.82;;;6.35;;
75408;SDS011;63979;55.644;37.734;2023-04-25T02:26:01;13.52;;;7.38;;
75408;SDS011;63979;55.644;37.734;2023-04-25T02:31:03;18.77;;;8.35;;
75408;SDS011;63979;55.644;37.734;2023-04-25T02:36:04;11.05;;;6.72;;
75408;SDS011;63979;55.644;37.734;2023-04-25T02:41:05;11.95;;;6.85;;
75408;SDS011;63979;55.644;37.734;2023-04-25T02:46:07;16.23;;;8.63;;
75408;SDS011;63979;55.644;37.734;2023-04-25T02:56:08;17.38;;;9.43;;
75408;SDS011;63979;55.644;37.734;2023-04-25T03:01:09;21.85;;;9.88;;
75408;SDS011;63979;55.644;37.734;2023-04-25T03:06:10;14.90;;;9.43;;
75408;SDS011;63979;55.644;37.734;2023-04-25T03:11:12;15.00;;;9.95;;
75408;SDS011;63979;55.644;37.734;2023-04-25T03:16:13;17.83;;;9.73;;
75408;SDS011;63979;55.644;37.734;2023-04-25T03:21:14;16.83;;;10.05;;
75408;SDS011;63979;55.644;37.734;2023-04-25T03:26:16;15.07;;;9.85;;
75408;SDS011;63979;55.644;37.734;2023-04-25T03:31:17;15.55;;;9.38;;
75408;SDS011;63979;55.644;37.734;2023-04-25T03:36:18;20.02;;;9.60;;
75408;SDS011;63979;55.644;37.734;2023-04-25T03:41:19;16.55;;;8.35;;
75408;SDS011;63979;55.644;37.734;2023-04-25T03:46:21;19.30;;;9.20;;
75408;SDS011;63979;55.644;37.734;2023-04-25T03:51:22;15.63;;;8.27;;
75408;SDS011;63979;55.644;37.734;2023-04-25T03:56:23;14.00;;;8.07;;
75408;SDS011;63979;55.644;37.734;2023-04-25T04:01:24;11.57;;;8.00;;
75408;SDS011;63979;55.644;37.734;2023-04-25T04:06:26;15.88;;;7.93;;
75408;SDS011;63979;55.644;37.734;2023-04-25T04:11:27;12.00;;;7.18;;
75408;SDS011;63979;55.644;37.734;2023-04-25T04:16:28;14.30;;;7.93;;
75408;SDS011;63979;55.644;37.734;2023-04-25T04:21:29;8.88;;;7.05;;
75408;SDS011;63979;55.644;37.734;2023-04-25T04:26:31;14.88;;;7.30;;
75408;SDS011;63979;55.644;37.734;2023-04-25T04:31:34;15.13;;;7.72;;
75408;SDS011;63979;55.644;37.734;2023-04-25T04:36:35;16.38;;;8.30;;
75408;SDS011;63979;55.644;37.734;2023-04-25T04:41:36;10.20;;;6.93;;
75408;SDS011;63979;55.644;37.734;2023-04-25T04:46:37;17.10;;;8.88;;
75408;SDS011;63979;55.644;37.734;2023-04-25T04:51:42;10.93;;;7.45;;
75408;SDS011;63979;55.644;37.734;2023-04-25T04:56:45;12.82;;;9.07;;
75408;SDS011;63979;55.644;37.734;2023-04-25T05:01:46;11.60;;;8.18;;
75408;SDS011;63979;55.644;37.734;2023-04-25T05:06:47;14.77;;;8.18;;
75408;SDS011;63979;55.644;37.734;2023-04-25T05:11:48;21.50;;;11.00;;
75408;SDS011;63979;55.644;37.734;2023-04-25T05:16:49;22.38;;;11.82;;
75408;SDS011;63979;55.644;37.734;2023-04-25T05:21:51;14.43;;;9.73;;
75408;SDS011;63979;55.644;37.734;2023-04-25T05:31:53;14.10;;;8.65;;
75408;SDS011;63979;55.644;37.734;2023-04-25T05:36:54;15.40;;;9.18;;
75408;SDS011;63979;55.644;37.734;2023-04-25T05:41:55;12.50;;;9.05;;
75408;SDS011;63979;55.644;37.734;2023-04-25T05:46:57;18.48;;;9.35;;
75408;SDS011;63979;55.644;37.734;2023-04-25T05:51:58;16.35;;;8.77;;
75408;SDS011;63979;55.644;37.734;2023-04-25T05:56:59;18.40;;;10.95;;
75408;SDS011;63979;55.644;37.734;2023-04-25T06:02:00;9.70;;;6.93;;
75408;SDS011;63979;55.644;37.734;2023-04-25T06:07:01;6.75;;;5.97;;
75408;SDS011;63979;55.644;37.734;2023-04-25T06:12:02;11.65;;;7.40;;
75408;SDS011;63979;55.644;37.734;2023-04-25T06:17:04;8.07;;;6.78;;
75408;SDS011;63979;55.644;37.734;2023-04-25T06:22:08;11.23;;;6.25;;
75408;SDS011;63979;55.644;37.734;2023-04-25T06:27:10;14.88;;;6.88;;
75408;SDS011;63979;55.644;37.734;2023-04-25T06:32:11;12.30;;;7.10;;
75408;SDS011;63979;55.644;37.734;2023-04-25T06:37:12;11.50;;;6.80;;
75408;SDS011;63979;55.644;37.734;2023-04-25T06:42:14;9.10;;;5.32;;
75408;SDS011;63979;55.644;37.734;2023-04-25T06:47:15;7.15;;;3.95;;
75408;SDS011;63979;55.644;37.734;2023-04-25T06:52:16;10.40;;;5.32;;
75408;SDS011;63979;55.644;37.734;2023-04-25T06:57:18;6.38;;;4.82;;
75408;SDS011;63979;55.644;37.734;2023-04-25T07:02:19;20.08;;;4.82;;
75408;SDS011;63979;55.644;37.734;2023-04-25T07:07:22;7.22;;;4.30;;
75408;SDS011;63979;55.644;37.734;2023-04-25T07:12:23;7.57;;;3.88;;
75408;SDS011;63979;55.644;37.734;2023-04-25T07:17:24;7.63;;;4.15;;
75408;SDS011;63979;55.644;37.734;2023-04-25T07:22:26;8.73;;;3.70;;
75408;SDS011;63979;55.644;37.734;2023-04-25T07:27:28;4.45;;;3.03;;
75408;SDS011;63979;55.644;37.734;2023-04-25T07:32:29;7.18;;;4.45;;
75408;SDS011;63979;55.644;37.734;2023-04-25T07:37:30;4.28;;;3.35;;
75408;SDS011;63979;55.644;37.734;2023-04-25T07:42:32;4.03;;;3.45;;
75408;SDS011;63979;55.644;37.734;2023-04-25T07:47:33;3.88;;;3.10;;
75408;SDS011;63979;55.644;37.734;2023-04-25T07:52:34;7.22;;;3.45;;
75408;SDS011;63979;55.644;37.734;2023-04-25T07:57:35;8.43;;;3.88;;
75408;SDS011;63979;55.644;37.734;2023-04-25T08:02:37;5.10;;;3.75;;
75408;SDS011;63979;55.644;37.734;2023-04-25T08:07:38;6.13;;;3.83;;
75408;SDS011;63979;55.644;37.734;2023-04-25T08:12:39;5.88;;;3.33;;
75408;SDS011;63979;55.644;37.734;2023-04-25T08:17:40;9.07;;;4.82;;
75408;SDS011;63979;55.644;37.734;2023-04-25T08:22:42;4.80;;;3.42;;
75408;SDS011;63979;55.644;37.734;2023-04-25T08:27:43;6.38;;;3.17;;
75408;SDS011;63979;55.644;37.734;2023-04-25T08:32:44;5.32;;;2.90;;
75408;SDS011;63979;55.644;37.734;2023-04-25T08:37:44;8.98;;;3.15;;
75408;SDS011;63979;55.644;37.734;2023-04-25T08:42:46;4.65;;;2.42;;
75408;SDS011;63979;55.644;37.734;2023-04-25T08:47:49;5.65;;;2.83;;
75408;SDS011;63979;55.644;37.734;2023-04-25T08:52:53;2.95;;;2.33;;
75408;SDS011;63979;55.644;37.734;2023-04-25T08:57:54;4.32;;;2.67;;
75408;SDS011;63979;55.644;37.734;2023-04-25T09:02:57;5.47;;;2.70;;
75408;SDS011;63979;55.644;37.734;2023-04-25T09:07:59;3.17;;;2.00;;
75408;SDS011;63979;55.644;37.734;2023-04-25T09:13:01;3.33;;;2.30;;
75408;SDS011;63979;55.644;37.734;2023-04-25T09:18:03;4.50;;;2.35;;
75408;SDS011;63979;55.644;37.734;2023-04-25T09:23:05;5.07;;;3.00;;
75408;SDS011;63979;55.644;37.734;2023-04-25T09:28:07;3.53;;;2.75;;
75408;SDS011;63979;55.644;37.734;2023-04-25T09:33:09;8.13;;;2.75;;
75408;SDS011;63979;55.644;37.734;2023-04-25T09:38:11;4.97;;;2.90;;
75408;SDS011;63979;55.644;37.734;2023-04-25T09:43:23;3.38;;;3.03;;
75408;SDS011;63979;55.644;37.734;2023-04-25T09:48:26;7.47;;;2.83;;
75408;SDS011;63979;55.644;37.734;2023-04-25T09:53:28;4.03;;;2.60;;
75408;SDS011;63979;55.644;37.734;2023-04-25T09:58:29;3.42;;;2.80;;
75408;SDS011;63979;55.644;37.734;2023-04-25T10:03:32;9.18;;;3.60;;
75408;SDS011;63979;55.644;37.734;2023-04-25T10:08:35;5.80;;;3.15;;
75408;SDS011;63979;55.644;37.734;2023-04-25T10:13:37;6.13;;;2.90;;
75408;SDS011;63979;55.644;37.734;2023-04-25T10:18:38;5.25;;;2.83;;
75408;SDS011;63979;55.644;37.734;2023-04-25T10:23:39;4.53;;;2.60;;
75408;SDS011;63979;55.644;37.734;2023-04-25T10:29:15;4.22;;;2.78;;
75408;SDS011;63979;55.644;37.734;2023-04-25T10:34:10;3.38;;;2.60;;
75408;SDS011;63979;55.644;37.734;2023-04-25T10:39:11;4.85;;;2.58;;
75408;SDS011;63979;55.644;37.734;2023-04-25T10:44:12;4.75;;;2.63;;
75408;SDS011;63979;55.644;37.734;2023-04-25T10:54:33;4.40;;;2.28;;
75408;SDS011;63979;55.644;37.734;2023-04-25T10:59:34;2.78;;;2.53;;
75408;SDS011;63979;55.644;37.734;2023-04-25T11:04:35;3.30;;;1.85;;
75408;SDS011;63979;55.644;37.734;2023-04-25T11:09:40;2.90;;;1.90;;
75408;SDS011;63979;55.644;37.734;2023-04-25T11:14:41;2.60;;;1.65;;
75408;SDS011;63979;55.644;37.734;2023-04-25T11:19:42;1.88;;;1.50;;
75408;SDS011;63979;55.644;37.734;2023-04-25T11:24:43;3.20;;;2.22;;
75408;SDS011;63979;55.644;37.734;2023-04-25T11:29:45;3.50;;;1.88;;
75408;SDS011;63979;55.644;37.734;2023-04-25T11:34:48;3.22;;;2.50;;
75408;SDS011;63979;55.644;37.734;2023-04-25T11:39:49;5.78;;;2.03;;
75408;SDS011;63979;55.644;37.734;2023-04-25T11:44:50;4.90;;;2.22;;
75408;SDS011;63979;55.644;37.734;2023-04-25T11:49:52;6.05;;;2.60;;
75408;SDS011;63979;55.644;37.734;2023-04-25T11:54:54;5.30;;;1.92;;
75408;SDS011;63979;55.644;37.734;2023-04-25T12:00:04;3.47;;;2.28;;
75408;SDS011;63979;55.644;37.734;2023-04-25T12:05:09;3.42;;;2.17;;
75408;SDS011;63979;55.644;37.734;2023-04-25T12:10:12;2.65;;;1.80;;
75408;SDS011;63979;55.644;37.734;2023-04-25T12:15:18;5.88;;;3.92;;
75408;SDS011;63979;55.644;37.734;2023-04-25T12:20:24;3.47;;;2.17;;
75408;SDS011;63979;55.644;37.734;2023-04-25T12:35:58;4.63;;;2.10;;
75408;SDS011;63979;55.644;37.734;2023-04-25T12:41:00;3.22;;;2.35;;
75408;SDS011;63979;55.644;37.734;2023-04-25T12:46:02;5.10;;;2.50;;
75408;SDS011;63979;55.644;37.734;2023-04-25T12:51:03;7.45;;;2.38;;
75408;SDS011;63979;55.644;37.734;2023-04-25T12:56:04;3.28;;;2.30;;
75408;SDS011;63979;55.644;37.734;2023-04-25T13:01:09;3.90;;;2.35;;
75408;SDS011;63979;55.644;37.734;2023-04-25T13:06:12;4.38;;;2.95;;
75408;SDS011;63979;55.644;37.734;2023-04-25T13:11:13;4.68;;;3.08;;
75408;SDS011;63979;55.644;37.734;2023-04-25T13:16:17;4.72;;;2.55;;
75408;SDS011;63979;55.644;37.734;2023-04-25T13:21:21;6.70;;;2.75;;
75408;SDS011;63979;55.644;37.734;2023-04-25T13:26:22;6.78;;;2.92;;
75408;SDS011;63979;55.644;37.734;2023-04-25T13:31:23;4.60;;;3.00;;
75408;SDS011;63979;55.644;37.734;2023-04-25T13:36:26;4.03;;;2.70;;
75408;SDS011;63979;55.644;37.734;2023-04-25T13:41:28;4.18;;;2.30;;
75408;SDS011;63979;55.644;37.734;2023-04-25T13:46:29;5.35;;;2.45;;
75408;SDS011;63979;55.644;37.734;2023-04-25T13:51:30;5.45;;;2.85;;
75408;SDS011;63979;55.644;37.734;2023-04-25T13:56:31;6.38;;;3.15;;
75408;SDS011;63979;55.644;37.734;2023-04-25T14:01:32;10.63;;;4.38;;
75408;SDS011;63979;55.644;37.734;2023-04-25T14:06:35;2.47;;;2.28;;
75408;SDS011;63979;55.644;37.734;2023-04-25T14:11:36;3.13;;;2.83;;
75408;SDS011;63979;55.644;37.734;2023-04-25T14:16:37;3.83;;;3.13;;
75408;SDS011;63979;55.644;37.734;2023-04-25T14:21:42;6.90;;;3.03;;
75408;SDS011;63979;55.644;37.734;2023-04-25T14:26:43;4.95;;;3.67;;
75408;SDS011;63979;55.644;37.734;2023-04-25T14:31:44;6.85;;;3.30;;
75408;SDS011;63979;55.644;37.734;2023-04-25T14:36:45;4.93;;;3.10;;
75408;SDS011;63979;55.644;37.734;2023-04-25T14:41:46;4.43;;;3.42;;
75408;SDS011;63979;55.644;37.734;2023-04-25T14:46:48;6.47;;;3.22;;
75408;SDS011;63979;55.644;37.734;2023-04-25T14:51:51;4.50;;;3.67;;
75408;SDS011;63979;55.644;37.734;2023-04-25T14:56:52;5.15;;;3.67;;
75408;SDS011;63979;55.644;37.734;2023-04-25T15:01:53;7.95;;;3.20;;
75408;SDS011;63979;55.644;37.734;2023-04-25T15:06:55;4.60;;;3.15;;
75408;SDS011;63979;55.644;37.734;2023-04-25T15:11:56;6.97;;;3.38;;
75408;SDS011;63979;55.644;37.734;2023-04-25T15:16:59;6.70;;;2.40;;
75408;SDS011;63979;55.644;37.734;2023-04-25T15:22:00;3.50;;;2.45;;
75408;SDS011;63979;55.644;37.734;2023-04-25T15:27:03;2.90;;;2.40;;
75408;SDS011;63979;55.644;37.734;2023-04-25T15:32:05;3.78;;;2.60;;
75408;SDS011;63979;55.644;37.734;2023-04-25T15:37:07;6.88;;;2.60;;
75408;SDS011;63979;55.644;37.734;2023-04-25T15:42:08;4.13;;;2.50;;
75408;SDS011;63979;55.644;37.734;2023-04-25T15:47:12;6.03;;;2.70;;
75408;SDS011;63979;55.644;37.734;2023-04-25T15:52:13;5.38;;;3.00;;
75408;SDS011;63979;55.644;37.734;2023-04-25T15:57:14;7.00;;;3.65;;
75408;SDS011;63979;55.644;37.734;2023-04-25T16:02:16;5.40;;;3.72;;
75408;SDS011;63979;55.644;37.734;2023-04-25T16:07:18;9.10;;;3.22;;
75408;SDS011;63979;55.644;37.734;2023-04-25T16:12:19;9.52;;;3.67;;
75408;SDS011;63979;55.644;37.734;2023-04-25T16:17:20;6.07;;;3.28;;
75408;SDS011;63979;55.644;37.734;2023-04-25T16:22:21;5.70;;;2.70;;
75408;SDS011;63979;55.644;37.734;2023-04-25T16:27:22;11.68;;;3.55;;
75408;SDS011;63979;55.644;37.734;2023-04-25T16:32:23;5.38;;;3.63;;
75408;SDS011;63979;55.644;37.734;2023-04-25T16:37:24;4.22;;;3.40;;
75408;SDS011;63979;55.644;37.734;2023-04-25T16:42:27;5.13;;;3.47;;
75408;SDS011;63979;55.644;37.734;2023-04-25T16:47:28;8.48;;;2.97;;
75408;SDS011;63979;55.644;37.734;2023-04-25T16:52:29;5.85;;;3.13;;
75408;SDS011;63979;55.644;37.734;2023-04-25T16:57:31;6.47;;;2.55;;
75408;SDS011;63979;55.644;37.734;2023-04-25T17:02:32;4.32;;;2.83;;
75408;SDS011;63979;55.644;37.734;2023-04-25T17:07:33;5.47;;;3.00;;
75408;SDS011;63979;55.644;37.734;2023-04-25T17:12:34;3.75;;;2.35;;
75408;SDS011;63979;55.644;37.734;2023-04-25T17:17:35;9.40;;;4.63;;
75408;SDS011;63979;55.644;37.734;2023-04-25T17:22:36;4.68;;;2.70;;
75408;SDS011;63979;55.644;37.734;2023-04-25T17:27:38;5.55;;;3.10;;
75408;SDS011;63979;55.644;37.734;2023-04-25T17:32:39;6.32;;;3.33;;
75408;SDS011;63979;55.644;37.734;2023-04-25T17:37:40;6.38;;;3.35;;
75408;SDS011;63979;55.644;37.734;2023-04-25T17:42:40;6.03;;;2.92;;
75408;SDS011;63979;55.644;37.734;2023-04-25T17:47:42;3.53;;;2.97;;
75408;SDS011;63979;55.644;37.734;2023-04-25T17:52:43;5.38;;;3.80;;
75408;SDS011;63979;55.644;37.734;2023-04-25T17:57:47;4.32;;;3.45;;
75408;SDS011;63979;55.644;37.734;2023-04-25T18:02:48;6.22;;;4.30;;
75408;SDS011;63979;55.644;37.734;2023-04-25T18:07:51;6.68;;;3.80;;
75408;SDS011;63979;55.644;37.734;2023-04-25T18:12:52;7.82;;;4.75;;
75408;SDS011;63979;55.644;37.734;2023-04-25T18:17:53;8.25;;;4.78;;
75408;SDS011;63979;55.644;37.734;2023-04-25T18:22:56;14.18;;;8.45;;
75408;SDS011;63979;55.644;37.734;2023-04-25T18:27:57;7.78;;;4.93;;
75408;SDS011;63979;55.644;37.734;2023-04-25T18:32:59;6.35;;;4.13;;
75408;SDS011;63979;55.644;37.734;2023-04-25T18:38:00;6.97;;;4.28;;
75408;SDS011;63979;55.644;37.734;2023-04-25T18:43:01;6.25;;;4.22;;
75408;SDS011;63979;55.644;37.734;2023-04-25T18:48:02;7.47;;;4.30;;
75408;SDS011;63979;55.644;37.734;2023-04-25T18:53:03;10.43;;;4.80;;
75408;SDS011;63979;55.644;37.734;2023-04-25T18:58:04;6.25;;;4.68;;
75408;SDS011;63979;55.644;37.734;2023-04-25T19:03:06;6.05;;;4.32;;
75408;SDS011;63979;55.644;37.734;2023-04-25T19:08:08;7.82;;;5.32;;
75408;SDS011;63979;55.644;37.734;2023-04-25T19:13:08;7.57;;;4.55;;
75408;SDS011;63979;55.644;37.734;2023-04-25T19:18:10;6.30;;;4.53;;
75408;SDS011;63979;55.644;37.734;2023-04-25T19:23:11;9.52;;;4.28;;
75408;SDS011;63979;55.644;37.734;2023-04-25T19:28:12;9.45;;;5.25;;
75408;SDS011;63979;55.644;37.734;2023-04-25T19:33:14;5.90;;;4.72;;
75408;SDS011;63979;55.644;37.734;2023-04-25T19:38:16;10.88;;;5.30;;
75408;SDS011;63979;55.644;37.734;2023-04-25T19:43:17;9.77;;;5.78;;
75408;SDS011;63979;55.644;37.734;2023-04-25T19:48:18;9.88;;;6.75;;
75408;SDS011;63979;55.644;37.734;2023-04-25T19:53:19;16.27;;;7.43;;
75408;SDS011;63979;55.644;37.734;2023-04-25T19:58:20;14.20;;;6.57;;
75408;SDS011;63979;55.644;37.734;2023-04-25T20:03:21;12.00;;;5.03;;
75408;SDS011;63979;55.644;37.734;2023-04-25T20:08:24;11.82;;;3.53;;
75408;SDS011;63979;55.644;37.734;2023-04-25T20:13:25;8.75;;;3.65;;
75408;SDS011;63979;55.644;37.734;2023-04-25T20:18:26;9.82;;;4.35;;
75408;SDS011;63979;55.644;37.734;2023-04-25T20:23:27;8.70;;;4.40;;
75408;SDS011;63979;55.644;37.734;2023-04-25T20:28:28;5.68;;;4.20;;
75408;SDS011;63979;55.644;37.734;2023-04-25T20:33:29;4.05;;;3.35;;
75408;SDS011;63979;55.644;37.734;2023-04-25T20:38:30;7.68;;;4.80;;
75408;SDS011;63979;55.644;37.734;2023-04-25T20:43:31;6.95;;;3.47;;
75408;SDS011;63979;55.644;37.734;2023-04-25T20:48:33;5.05;;;3.42;;
75408;SDS011;63979;55.644;37.734;2023-04-25T20:53:34;5.97;;;3.45;;
75408;SDS011;63979;55.644;37.734;2023-04-25T20:58:35;11.40;;;3.80;;
75408;SDS011;63979;55.644;37.734;2023-04-25T21:03:36;4.78;;;3.08;;
75408;SDS011;63979;55.644;37.734;2023-04-25T21:08:37;9.68;;;4.40;;
75408;SDS011;63979;55.644;37.734;2023-04-25T21:13:38;4.82;;;3.47;;
75408;SDS011;63979;55.644;37.734;2023-04-25T21:18:39;6.03;;;3.28;;
75408;SDS011;63979;55.644;37.734;2023-04-25T21:23:40;9.10;;;3.03;;
75408;SDS011;63979;55.644;37.734;2023-04-25T21:28:42;4.18;;;3.03;;
75408;SDS011;63979;55.644;37.734;2023-04-25T21:33:42;5.35;;;3.10;;
75408;SDS011;63979;55.644;37.734;2023-04-25T21:38:43;4.97;;;3.15;;
75408;SDS011;63979;55.644;37.734;2023-04-25T21:43:44;4.60;;;2.85;;
75408;SDS011;63979;55.644;37.734;2023-04-25T21:48:45;4.47;;;2.85;;
75408;SDS011;63979;55.644;37.734;2023-04-25T21:53:47;4.22;;;2.90;;
75408;SDS011;63979;55.644;37.734;2023-04-25T21:58:47;3.85;;;3.03;;
75408;SDS011;63979;55.644;37.734;2023-04-25T22:03:49;7.32;;;3.45;;
75408;SDS011;63979;55.644;37.734;2023-04-25T22:08:50;7.40;;;3.55;;
75408;SDS011;63979;55.644;37.734;2023-04-25T22:13:51;6.55;;;3.90;;
75408;SDS011;63979;55.644;37.734;2023-04-25T22:18:54;6.85;;;3.13;;
75408;SDS011;63979;55.644;37.734;2023-04-25T22:23:55;5.07;;;3.35;;
75408;SDS011;63979;55.644;37.734;2023-04-25T22:28:56;4.72;;;3.63;;
75408;SDS011;63979;55.644;37.734;2023-04-25T22:33:57;9.82;;;3.70;;
75408;SDS011;63979;55.644;37.734;2023-04-25T22:38:58;4.43;;;3.78;;
75408;SDS011;63979;55.644;37.734;2023-04-25T22:44:00;5.78;;;3.45;;
75408;SDS011;63979;55.644;37.734;2023-04-25T22:49:01;8.13;;;3.72;;
75408;SDS011;63979;55.644;37.734;2023-04-25T22:54:02;5.90;;;4.18;;
75408;SDS011;63979;55.644;37.734;2023-04-25T22:59:04;4.55;;;4.10;;
75408;SDS011;63979;55.644;37.734;2023-04-25T23:04:05;4.88;;;3.50;;
75408;SDS011;63979;55.644;37.734;2023-04-25T23:09:07;6.68;;;4.25;;
75408;SDS011;63979;55.644;37.734;2023-04-25T23:14:09;6.20;;;4.10;;
75408;SDS011;63979;55.644;37.734;2023-04-25T23:19:10;7.70;;;4.53;;
75408;SDS011;63979;55.644;37.734;2023-04-25T23:24:12;6.03;;;4.20;;
75408;SDS011;63979;55.644;37.734;2023-04-25T23:29:13;5.55;;;3.85;;
75408;SDS011;63979;55.644;37.734;2023-04-25T23:34:14;5.60;;;3.83;;
75408;SDS011;63979;55.644;37.734;2023-04-25T23:39:16;7.80;;;4.35;;
75408;SDS011;63979;55.644;37.734;2023-04-25T23:44:18;6.65;;;4.45;;
75408;SDS011;63979;55.644;37.734;2023-04-25T23:49:19;9.32;;;3.92;;
75408;SDS011;63979;55.644;37.734;2023-04-25T23:54:20;5.32;;;4.13;;
75408;SDS011;63979;55.644;37.734;2023-04-25T23:59:21;6.63;;;3.50;;
